createdAt,value
2018-12-17T00:00:34.582Z,26.00
2018-12-17T00:03:03.055Z,25.35
2018-12-17T00:05:31.555Z,25.48
2018-12-17T00:08:00.154Z,25.83
2018-12-17T00:10:28.627Z,25.37
2018-12-17T00:12:57.116Z,25.40
2018-12-17T00:15:25.631Z,25.47
2018-12-17T00:17:54.134Z,25.44
2018-12-17T00:20:22.598Z,25.33
2018-12-17T00:22:51.538Z,25.99
2018-12-17T00:25:20.108Z,25.35
2018-12-17T00:27:48.613Z,25.78
2018-12-17T00:30:17.271Z,26.05
2018-12-17T00:32:45.778Z,26.02
2018-12-17T00:35:14.255Z,25.33
2018-12-17T00:37:42.879Z,25.95
2018-12-17T00:40:11.431Z,25.84
2018-12-17T00:42:40.035Z,25.74
2018-12-17T00:45:08.658Z,25.71
2018-12-17T00:47:37.142Z,25.81
2018-12-17T00:50:07.002Z,25.34
2018-12-17T00:52:35.615Z,25.19
2018-12-17T00:55:04.136Z,25.71
2018-12-17T00:57:32.615Z,26.05
2018-12-17T01:00:01.235Z,25.36
2018-12-17T01:02:29.703Z,25.61
2018-12-17T01:04:58.187Z,25.93
2018-12-17T01:07:30.730Z,25.75
2018-12-17T01:09:59.324Z,25.98
2018-12-17T01:12:27.851Z,25.42
2018-12-17T01:14:56.446Z,25.82
2018-12-17T01:17:24.919Z,25.81
2018-12-17T01:19:53.513Z,25.81
2018-12-17T01:22:22.097Z,25.84
2018-12-17T01:24:50.551Z,25.72
2018-12-17T01:27:19.112Z,25.27
2018-12-17T01:29:47.658Z,26.02
2018-12-17T01:32:16.155Z,25.55
2018-12-17T01:34:44.645Z,25.34
2018-12-17T01:37:13.266Z,25.40
2018-12-17T01:39:41.851Z,25.83
2018-12-17T01:42:10.439Z,25.24
2018-12-17T01:44:39.503Z,25.32
2018-12-17T01:47:07.980Z,25.25
2018-12-17T01:49:36.471Z,25.46
2018-12-17T01:52:05.558Z,25.74
2018-12-17T01:54:34.030Z,25.80
2018-12-17T01:57:02.495Z,25.09
2018-12-17T01:59:31.123Z,25.80
2018-12-17T02:01:59.915Z,25.75
2018-12-17T02:04:28.399Z,25.56
2018-12-17T02:06:57.014Z,25.21
2018-12-17T02:09:25.521Z,25.73
2018-12-17T02:11:54.351Z,25.33
2018-12-17T02:14:22.971Z,25.89
2018-12-17T02:16:51.439Z,25.15
2018-12-17T02:19:19.902Z,25.07
2018-12-17T02:21:48.607Z,25.82
2018-12-17T02:24:17.083Z,25.89
2018-12-17T02:26:45.582Z,25.19
2018-12-17T02:29:14.594Z,24.94
2018-12-17T02:31:43.221Z,25.11
2018-12-17T02:34:11.707Z,25.04
2018-12-17T02:36:40.328Z,25.50
2018-12-17T02:39:08.888Z,25.46
2018-12-17T02:41:37.663Z,25.34
2018-12-17T02:44:06.389Z,25.77
2018-12-17T02:46:34.927Z,25.13
2018-12-17T02:49:03.406Z,25.06
2018-12-17T02:51:32.738Z,25.16
2018-12-17T02:54:01.212Z,25.80
2018-12-17T02:56:29.696Z,25.82
2018-12-17T02:58:58.242Z,25.53
2018-12-17T03:01:26.839Z,25.66
2018-12-17T03:03:55.311Z,25.22
2018-12-17T03:06:24.016Z,25.62
2018-12-17T03:08:52.487Z,25.57
2018-12-17T03:11:21.259Z,25.41
2018-12-17T03:13:49.919Z,25.48
2018-12-17T03:16:18.414Z,25.37
2018-12-17T03:18:46.893Z,25.46
2018-12-17T03:21:15.755Z,25.04
2018-12-17T03:23:44.244Z,25.29
2018-12-17T03:26:12.726Z,25.60
2018-12-17T03:28:41.323Z,24.98
2018-12-17T03:31:10.141Z,25.53
2018-12-17T03:33:38.623Z,25.26
2018-12-17T03:36:07.506Z,25.65
2018-12-17T03:38:36.025Z,25.15
2018-12-17T03:41:04.603Z,25.14
2018-12-17T03:43:33.487Z,25.18
2018-12-17T03:46:01.981Z,25.63
2018-12-17T03:48:30.491Z,25.05
2018-12-17T03:51:04.352Z,25.59
2018-12-17T03:53:32.832Z,25.00
2018-12-17T03:56:01.312Z,25.49
2018-12-17T03:58:30.350Z,25.15
2018-12-17T04:00:58.967Z,25.44
2018-12-17T04:03:27.435Z,25.54
2018-12-17T04:05:56.060Z,24.93
2018-12-17T04:08:24.591Z,25.59
2018-12-17T04:10:53.123Z,25.35
2018-12-17T04:13:21.995Z,25.10
2018-12-17T04:15:50.481Z,25.36
2018-12-17T04:18:18.966Z,25.48
2018-12-17T04:20:47.576Z,25.38
2018-12-17T04:23:16.059Z,25.48
2018-12-17T04:25:44.534Z,24.78
2018-12-17T04:28:13.066Z,25.01
2018-12-17T04:30:41.675Z,24.84
2018-12-17T04:33:10.255Z,24.93
2018-12-17T04:35:38.915Z,24.93
2018-12-17T04:38:07.390Z,24.97
2018-12-17T04:40:36.180Z,24.90
2018-12-17T04:43:04.693Z,25.51
2018-12-17T04:45:33.210Z,25.36
2018-12-17T04:48:01.780Z,25.38
2018-12-17T04:50:30.575Z,24.88
2018-12-17T04:52:59.068Z,25.82
2018-12-17T04:55:27.560Z,25.58
2018-12-17T04:57:56.211Z,24.84
2018-12-17T05:00:29.887Z,25.46
2018-12-17T05:02:58.847Z,25.24
2018-12-17T05:05:27.336Z,25.58
2018-12-17T05:07:55.811Z,24.86
2018-12-17T05:10:24.422Z,25.19
2018-12-17T05:12:52.921Z,25.10
2018-12-17T05:15:21.387Z,24.87
2018-12-17T05:17:50.015Z,24.86
2018-12-17T05:20:18.494Z,24.83
2018-12-17T05:22:46.974Z,24.73
2018-12-17T05:25:15.819Z,25.31
2018-12-17T05:27:44.299Z,25.05
2018-12-17T05:30:12.826Z,25.24
2018-12-17T05:32:41.956Z,24.90
2018-12-17T05:35:10.535Z,25.05
2018-12-17T05:37:39.047Z,25.33
2018-12-17T05:40:07.663Z,25.28
2018-12-17T05:42:36.407Z,25.45
2018-12-17T05:45:05.471Z,25.25
2018-12-17T05:47:34.128Z,24.85
2018-12-17T05:50:02.615Z,25.09
2018-12-17T05:52:31.371Z,25.08
2018-12-17T05:55:00.035Z,25.38
2018-12-17T05:57:28.503Z,24.66
2018-12-17T05:59:57.041Z,25.49
2018-12-17T06:02:25.919Z,25.41
2018-12-17T06:04:54.395Z,25.34
2018-12-17T06:07:22.902Z,25.23
2018-12-17T06:09:51.516Z,25.16
2018-12-17T06:12:25.150Z,24.50
2018-12-17T06:14:53.814Z,25.25
2018-12-17T06:17:22.298Z,25.38
2018-12-17T06:19:50.838Z,24.63
2018-12-17T06:22:19.645Z,25.44
2018-12-17T06:24:48.142Z,24.66
2018-12-17T06:27:16.618Z,24.77
2018-12-17T06:29:45.227Z,25.15
2018-12-17T06:32:19.018Z,24.88
2018-12-17T06:34:47.646Z,25.11
2018-12-17T06:37:16.237Z,25.32
2018-12-17T06:39:45.160Z,24.55
2018-12-17T06:42:14.356Z,24.60
2018-12-17T06:44:42.958Z,25.15
2018-12-17T06:47:11.475Z,25.32
2018-12-17T06:49:40.074Z,25.21
2018-12-17T06:52:08.759Z,24.56
2018-12-17T06:54:37.473Z,24.78
2018-12-17T06:57:06.160Z,24.73
2018-12-17T06:59:34.666Z,25.28
2018-12-17T07:02:03.307Z,25.41
2018-12-17T07:04:31.978Z,25.23
2018-12-17T07:07:00.475Z,24.73
2018-12-17T07:09:28.979Z,25.23
2018-12-17T07:12:02.678Z,25.31
2018-12-17T07:14:36.426Z,25.23
2018-12-17T07:17:01.675Z,24.97
2018-12-17T07:19:30.393Z,25.41
2018-12-17T07:22:04.032Z,24.74
2018-12-17T07:24:32.899Z,25.30
2018-12-17T07:27:01.387Z,25.23
2018-12-17T07:29:29.895Z,24.73
2018-12-17T07:31:58.498Z,24.92
2018-12-17T07:34:27.602Z,25.09
2018-12-17T07:36:56.923Z,24.75
2018-12-17T07:39:26.383Z,25.05
2018-12-17T07:41:54.883Z,25.10
2018-12-17T07:44:23.363Z,25.27
2018-12-17T07:46:52.229Z,25.56
2018-12-17T07:49:20.699Z,25.24
2018-12-17T07:51:49.191Z,25.63
2018-12-17T07:54:17.786Z,25.58
2018-12-17T07:56:46.303Z,31.44
2018-12-17T07:59:14.786Z,29.62
2018-12-17T08:01:43.398Z,29.77
2018-12-17T08:04:11.878Z,28.63
2018-12-17T08:06:40.338Z,28.07
2018-12-17T08:09:08.923Z,28.64
2018-12-17T08:11:37.403Z,29.92
2018-12-17T08:14:05.862Z,32.30
2018-12-17T08:16:34.482Z,29.79
2018-12-17T08:19:02.947Z,31.15
2018-12-17T08:21:41.171Z,30.03
2018-12-17T08:24:09.624Z,31.18
2018-12-17T08:26:38.135Z,31.36
2018-12-17T08:29:06.747Z,32.57
2018-12-17T08:31:35.332Z,31.42
2018-12-17T08:34:03.807Z,31.52
2018-12-17T08:36:32.397Z,31.77
2018-12-17T08:39:00.875Z,32.00
2018-12-17T08:41:29.422Z,31.85
2018-12-17T08:43:58.399Z,31.88
2018-12-17T08:46:26.862Z,32.36
2018-12-17T08:48:55.327Z,31.99
2018-12-17T08:51:23.863Z,31.22
2018-12-17T08:53:53.115Z,31.28
2018-12-17T08:56:21.714Z,30.56
2018-12-17T08:58:50.243Z,30.69
2018-12-17T09:01:18.694Z,30.90
2018-12-17T09:03:47.193Z,31.17
2018-12-17T09:06:15.813Z,30.96
2018-12-17T09:08:44.279Z,30.10
2018-12-17T09:11:12.791Z,30.23
2018-12-17T09:13:41.546Z,30.16
2018-12-17T09:16:10.142Z,29.70
2018-12-17T09:18:38.723Z,29.70
2018-12-17T09:21:07.334Z,29.64
2018-12-17T09:23:35.846Z,29.63
2018-12-17T09:26:04.344Z,29.51
2018-12-17T09:28:33.192Z,29.24
2018-12-17T09:31:01.704Z,29.51
2018-12-17T09:33:30.175Z,29.17
2018-12-17T09:35:58.775Z,29.38
2018-12-17T09:38:27.255Z,28.95
2018-12-17T09:40:55.751Z,28.68
2018-12-17T09:43:24.707Z,29.39
2018-12-17T09:45:53.187Z,28.75
2018-12-17T09:48:21.671Z,29.12
2018-12-17T09:50:50.423Z,28.94
2018-12-17T09:53:18.890Z,28.39
2018-12-17T09:55:47.401Z,28.28
2018-12-17T09:58:16.054Z,29.14
2018-12-17T10:00:44.830Z,28.85
2018-12-17T10:03:13.308Z,29.00
2018-12-17T10:05:41.980Z,28.77
2018-12-17T10:08:10.514Z,28.58
2018-12-17T10:10:39.359Z,28.86
2018-12-17T10:13:08.048Z,28.93
2018-12-17T10:15:36.694Z,28.81
2018-12-17T10:18:05.257Z,28.83
2018-12-17T10:20:33.916Z,28.32
2018-12-17T10:23:02.486Z,28.19
2018-12-17T10:25:30.974Z,28.22
2018-12-17T10:27:59.665Z,28.20
2018-12-17T10:30:32.555Z,28.00
2018-12-17T10:32:58.679Z,28.81
2018-12-17T10:35:27.318Z,28.69
2018-12-17T10:37:55.789Z,28.00
2018-12-17T10:40:24.283Z,28.48
2018-12-17T10:42:53.164Z,28.74
2018-12-17T10:45:21.747Z,28.60
2018-12-17T10:47:50.223Z,28.76
2018-12-17T10:50:18.842Z,27.92
2018-12-17T10:52:47.527Z,27.85
2018-12-17T10:55:15.999Z,28.75
2018-12-17T10:57:44.896Z,28.13
2018-12-17T11:00:17.645Z,28.00
2018-12-17T11:02:46.354Z,27.86
2018-12-17T11:05:17.372Z,28.24
2018-12-17T11:07:45.855Z,28.45
2018-12-17T11:10:14.331Z,28.44
2018-12-17T11:12:42.823Z,28.47
2018-12-17T11:15:11.944Z,28.45
2018-12-17T11:17:40.463Z,27.82
2018-12-17T11:20:10.629Z,27.69
2018-12-17T11:22:39.420Z,27.66
2018-12-17T11:25:08.351Z,28.18
2018-12-17T11:27:36.858Z,27.67
2018-12-17T11:30:07.167Z,28.22
2018-12-17T11:32:35.631Z,28.56
2018-12-17T11:35:04.190Z,28.37
2018-12-17T11:37:32.679Z,27.67
2018-12-17T11:40:01.198Z,28.36
2018-12-17T11:42:29.835Z,28.22
2018-12-17T11:44:58.311Z,27.61
2018-12-17T11:47:26.911Z,27.67
2018-12-17T11:49:55.519Z,27.79
2018-12-17T11:52:24.003Z,27.62
2018-12-17T11:54:52.567Z,27.70
2018-12-17T11:57:46.043Z,28.07
2018-12-17T12:00:14.707Z,27.92
2018-12-17T12:02:43.291Z,28.04
2018-12-17T12:05:11.819Z,27.50
2018-12-17T12:07:40.335Z,27.51
2018-12-17T12:10:08.936Z,28.24
2018-12-17T12:12:38.415Z,27.60
2018-12-17T12:15:07.007Z,28.18
2018-12-17T12:17:35.587Z,28.08
2018-12-17T12:20:04.383Z,28.29
2018-12-17T12:22:55.757Z,27.50
2018-12-17T12:25:24.415Z,27.35
2018-12-17T12:27:53.023Z,27.47
2018-12-17T12:30:21.584Z,27.42
2018-12-17T12:32:50.644Z,28.00
2018-12-17T12:35:19.251Z,27.45
2018-12-17T12:37:47.920Z,27.53
2018-12-17T12:40:16.543Z,27.90
2018-12-17T12:42:51.810Z,27.97
2018-12-17T12:45:20.565Z,27.85
2018-12-17T12:47:49.234Z,27.86
2018-12-17T12:50:17.756Z,27.39
2018-12-17T12:52:46.788Z,27.40
2018-12-17T12:55:15.379Z,27.44
2018-12-17T12:57:43.922Z,27.67
2018-12-17T13:00:14.443Z,27.97
2018-12-17T13:02:52.658Z,27.58
2018-12-17T13:05:21.688Z,27.49
2018-12-17T13:07:50.270Z,28.01
2018-12-17T13:10:18.795Z,27.95
2018-12-17T13:12:48.072Z,27.26
2018-12-17T13:15:16.664Z,27.35
2018-12-17T13:17:45.614Z,27.56
2018-12-17T13:20:14.446Z,27.41
2018-12-17T13:22:43.047Z,27.95
2018-12-17T13:25:18.880Z,27.84
2018-12-17T13:27:47.575Z,28.03
2018-12-17T13:30:16.179Z,27.33
2018-12-17T13:32:44.787Z,27.34
2018-12-17T13:35:13.391Z,27.67
2018-12-17T13:37:41.990Z,27.99
2018-12-17T13:40:11.547Z,27.79
2018-12-17T13:42:40.148Z,27.25
2018-12-17T13:45:09.006Z,27.27
2018-12-17T13:47:37.967Z,27.59
2018-12-17T13:50:11.839Z,27.74
2018-12-17T13:52:50.048Z,27.39
2018-12-17T13:55:18.571Z,27.30
2018-12-17T13:57:47.168Z,27.12
2018-12-17T14:00:15.852Z,27.10
2018-12-17T14:02:44.436Z,27.41
2018-12-17T14:05:12.969Z,27.14
2018-12-17T14:07:41.627Z,27.16
2018-12-17T14:10:16.112Z,27.72
2018-12-17T14:12:45.297Z,27.85
2018-12-17T14:15:13.935Z,27.12
2018-12-17T14:17:46.848Z,27.90
2018-12-17T14:20:20.572Z,27.24
2018-12-17T14:22:49.448Z,27.85
2018-12-17T14:25:18.133Z,28.03
2018-12-17T14:27:46.882Z,28.09
2018-12-17T14:30:15.642Z,27.51
2018-12-17T14:32:44.183Z,27.95
2018-12-17T14:35:12.672Z,28.17
2018-12-17T14:37:46.565Z,27.65
2018-12-17T14:40:15.067Z,27.63
2018-12-17T14:42:43.565Z,27.96
2018-12-17T14:45:12.438Z,27.60
2018-12-17T14:47:40.941Z,28.07
2018-12-17T14:50:09.567Z,27.67
2018-12-17T14:52:38.283Z,28.08
2018-12-17T14:55:07.379Z,28.06
2018-12-17T14:57:35.860Z,27.63
2018-12-17T15:00:05.624Z,27.67
2018-12-17T15:02:34.191Z,27.80
2018-12-17T15:05:02.683Z,27.79
2018-12-17T15:07:31.356Z,28.39
2018-12-17T15:09:59.831Z,27.85
2018-12-17T15:12:28.339Z,27.92
2018-12-17T15:14:57.280Z,28.09
2018-12-17T15:17:25.775Z,27.57
2018-12-17T15:19:54.278Z,27.87
2018-12-17T15:22:22.787Z,27.29
2018-12-17T15:24:51.289Z,28.01
2018-12-17T15:27:19.931Z,28.17
2018-12-17T15:29:49.076Z,27.66
2018-12-17T15:32:17.703Z,28.17
2018-12-17T15:34:46.179Z,28.25
2018-12-17T15:37:14.794Z,27.70
2018-12-17T15:39:43.287Z,27.61
2018-12-17T15:42:11.785Z,28.30
2018-12-17T15:44:41.612Z,27.65
2018-12-17T15:47:19.111Z,28.00
2018-12-17T15:52:40.294Z,27.49
2018-12-17T15:55:14.031Z,27.81
2018-12-17T16:00:34.987Z,27.99
2018-12-17T16:03:12.859Z,27.39
2018-12-17T16:05:41.547Z,28.17
2018-12-17T16:08:11.218Z,28.16
2018-12-17T16:10:39.832Z,27.88
2018-12-17T16:13:08.691Z,27.93
2018-12-17T16:18:10.983Z,28.01
2018-12-17T16:20:39.455Z,27.91
2018-12-17T16:23:13.551Z,27.21
2018-12-17T16:25:42.055Z,27.72
2018-12-17T16:28:10.550Z,27.70
2018-12-17T16:30:39.424Z,27.59
2018-12-17T16:33:07.947Z,28.02
2018-12-17T16:35:36.475Z,27.54
2018-12-17T16:38:05.018Z,27.66
2018-12-17T16:40:33.635Z,27.82
2018-12-17T16:43:02.103Z,27.44
2018-12-17T16:45:30.743Z,28.07
2018-12-17T16:47:59.245Z,27.91
2018-12-17T16:50:27.719Z,27.61
2018-12-17T16:52:56.567Z,27.73
2018-12-17T16:55:25.031Z,28.38
2018-12-17T16:57:53.515Z,27.72
2018-12-17T17:00:22.395Z,28.55
2018-12-17T17:02:56.095Z,27.88
2018-12-17T17:05:24.724Z,28.39
2018-12-17T17:07:53.251Z,27.67
2018-12-17T17:10:21.759Z,28.23
2018-12-17T17:12:50.668Z,28.31
2018-12-17T17:15:19.139Z,28.32
2018-12-17T17:17:47.626Z,28.20
2018-12-17T17:20:16.153Z,28.17
2018-12-17T17:22:44.616Z,28.02
2018-12-17T17:25:13.097Z,27.47
2018-12-17T17:27:41.652Z,27.81
2018-12-17T17:30:10.139Z,28.01
2018-12-17T17:32:38.623Z,27.71
2018-12-17T17:35:08.263Z,28.29
2018-12-17T17:37:37.037Z,28.23
2018-12-17T17:40:05.807Z,27.36
2018-12-17T17:42:34.516Z,27.99
2018-12-17T17:45:04.758Z,27.38
2018-12-17T17:47:33.319Z,27.41
2018-12-17T17:50:01.870Z,27.99
2018-12-17T17:52:30.432Z,27.85
2018-12-17T17:54:59.035Z,27.64
2018-12-17T17:57:27.679Z,28.15
2018-12-17T17:59:56.254Z,28.05
2018-12-17T18:02:24.719Z,27.28
2018-12-17T18:04:58.623Z,27.08
2018-12-17T18:07:27.111Z,27.49
2018-12-17T18:09:55.825Z,26.83
2018-12-17T18:12:24.903Z,27.33
2018-12-17T18:14:53.361Z,26.77
2018-12-17T18:17:21.844Z,26.56
2018-12-17T18:19:50.395Z,26.60
2018-12-17T18:22:18.936Z,26.97
2018-12-17T18:24:47.443Z,27.14
2018-12-17T18:27:16.056Z,26.46
2018-12-17T18:29:44.570Z,26.52
2018-12-17T18:32:18.354Z,26.41
2018-12-17T18:34:46.863Z,27.04
2018-12-17T18:37:15.375Z,26.60
2018-12-17T18:39:44.239Z,26.59
2018-12-17T18:42:13.043Z,25.71
2018-12-17T18:44:41.539Z,26.42
2018-12-17T18:47:10.205Z,25.87
2018-12-17T18:49:38.699Z,26.50
2018-12-17T18:52:13.084Z,25.75
2018-12-17T18:54:41.574Z,26.29
2018-12-17T18:57:10.147Z,25.82
2018-12-17T18:59:38.751Z,25.79
2018-12-17T19:02:07.230Z,26.53
2018-12-17T19:04:35.726Z,25.78
2018-12-17T19:07:04.423Z,25.88
2018-12-17T19:09:32.915Z,26.22
2018-12-17T19:12:01.591Z,25.46
2018-12-17T19:14:30.311Z,25.69
2018-12-17T19:16:58.807Z,25.67
2018-12-17T19:19:27.334Z,26.19
2018-12-17T19:22:01.078Z,25.85
2018-12-17T19:24:29.568Z,25.66
2018-12-17T19:26:58.079Z,25.76
2018-12-17T19:29:27.070Z,25.62
2018-12-17T19:31:55.556Z,25.66
2018-12-17T19:34:24.048Z,26.15
2018-12-17T19:36:52.683Z,25.31
2018-12-17T19:39:21.176Z,26.17
2018-12-17T19:41:49.716Z,25.90
2018-12-17T19:44:18.287Z,25.68
2018-12-17T19:46:46.795Z,25.89
2018-12-17T19:49:15.303Z,25.54
2018-12-17T19:51:44.088Z,25.57
2018-12-17T19:54:12.612Z,26.22
2018-12-17T19:56:41.168Z,26.08
2018-12-17T19:59:09.822Z,25.62
2018-12-17T20:01:38.387Z,26.34
2018-12-17T20:04:06.907Z,26.48
2018-12-17T20:06:35.551Z,26.62
2018-12-17T20:09:04.816Z,26.47
2018-12-17T20:11:33.443Z,26.15
2018-12-17T20:14:01.984Z,26.10
2018-12-17T20:16:30.551Z,26.28
2018-12-17T20:18:59.007Z,26.81
2018-12-17T20:21:32.939Z,26.20
2018-12-17T20:24:01.419Z,26.43
2018-12-17T20:26:29.871Z,27.13
2018-12-17T20:28:58.558Z,27.16
2018-12-17T20:31:27.046Z,27.16
2018-12-17T20:33:55.535Z,27.05
2018-12-17T20:36:24.162Z,26.55
2018-12-17T20:38:52.614Z,26.58
2018-12-17T20:41:21.109Z,27.04
2018-12-17T20:43:49.715Z,28.09
2018-12-17T20:46:18.215Z,27.32
2018-12-17T20:48:46.703Z,27.20
2018-12-17T20:51:15.279Z,27.27
2018-12-17T20:53:43.758Z,27.52
2018-12-17T20:56:12.243Z,27.37
2018-12-17T20:58:40.983Z,27.41
2018-12-17T21:01:09.543Z,27.29
2018-12-17T21:03:38.345Z,26.89
2018-12-17T21:06:06.914Z,27.13
2018-12-17T21:08:35.395Z,26.64
2018-12-17T21:11:04.109Z,26.59
2018-12-17T21:13:32.632Z,26.67
2018-12-17T21:16:01.098Z,27.01
2018-12-17T21:18:29.599Z,27.08
2018-12-17T21:20:58.143Z,27.16
2018-12-17T21:23:26.950Z,26.47
2018-12-17T21:25:55.443Z,27.21
2018-12-17T21:28:23.999Z,26.97
2018-12-17T21:30:52.486Z,26.99
2018-12-17T21:33:21.300Z,26.34
2018-12-17T21:35:49.834Z,26.98
2018-12-17T21:38:18.297Z,26.25
2018-12-17T21:40:46.847Z,26.52
2018-12-17T21:43:15.479Z,26.37
2018-12-17T21:45:43.951Z,26.90
2018-12-17T21:48:12.463Z,26.24
2018-12-17T21:50:41.043Z,26.42
2018-12-17T21:53:19.018Z,26.83
2018-12-17T21:55:47.619Z,26.21
2018-12-17T21:58:16.107Z,26.77
2018-12-17T22:00:44.613Z,26.89
2018-12-17T22:03:13.501Z,26.83
2018-12-17T22:05:42.329Z,26.29
2018-12-17T22:08:10.800Z,26.36
2018-12-17T22:10:39.413Z,26.76
2018-12-17T22:13:07.891Z,26.31
2018-12-17T22:15:36.374Z,26.18
2018-12-17T22:18:04.970Z,26.82
2018-12-17T22:20:33.435Z,26.32
2018-12-17T22:23:02.051Z,26.20
2018-12-17T22:25:30.579Z,26.77
2018-12-17T22:27:59.078Z,26.27
2018-12-17T22:30:27.556Z,26.88
2018-12-17T22:32:56.326Z,26.22
2018-12-17T22:35:24.799Z,26.24
2018-12-17T22:37:53.266Z,26.14
2018-12-17T22:40:21.875Z,26.61
2018-12-17T22:42:50.602Z,26.14
2018-12-17T22:45:19.066Z,26.77
2018-12-17T22:47:47.691Z,26.90
2018-12-17T22:50:16.158Z,26.23
2018-12-17T22:52:44.722Z,26.13
2018-12-17T22:55:13.262Z,26.12
2018-12-17T22:57:41.743Z,26.78
2018-12-17T23:00:10.283Z,26.24
2018-12-17T23:02:38.810Z,26.06
2018-12-17T23:05:07.367Z,25.99
2018-12-17T23:07:35.848Z,26.62
2018-12-17T23:10:15.963Z,26.61
2018-12-17T23:12:55.667Z,26.65
2018-12-17T23:15:35.447Z,26.17
2018-12-17T23:18:03.041Z,26.11
2018-12-17T23:20:31.558Z,26.71
2018-12-17T23:23:00.444Z,26.12
2018-12-17T23:25:28.934Z,26.10
2018-12-17T23:27:57.407Z,26.78
2018-12-17T23:30:26.091Z,26.81
2018-12-17T23:32:59.924Z,26.54
2018-12-17T23:35:28.538Z,26.20
2018-12-17T23:37:57.007Z,26.45
2018-12-17T23:40:25.475Z,26.64
2018-12-17T23:42:54.131Z,26.04
2018-12-17T23:45:22.622Z,26.13
2018-12-17T23:47:51.094Z,26.53
2018-12-17T23:50:19.611Z,25.71
2018-12-17T23:52:48.231Z,26.52
2018-12-17T23:55:16.719Z,26.68
2018-12-17T23:57:45.239Z,26.75
